Time;durP1;ratioP1;P1;durP2;ratioP2;P2;SDS_P1;SDS_P2;PMS_P1;PMS_P2;Temp;Humidity;BMP_temperature;BMP_pressure;BME280_temperature;BME280_humidity;BME280_pressure;Samples;Min_cycle;Max_cycle;Signal;HPM_P1;HPM_P2
2023/04/11 00:00:34;;;;;;;3.90;0.68;;;11.90;99.90;;;;;;4992761;28;20195;-77
2023/04/11 00:03:03;;;;;;;1.57;0.60;;;11.90;99.90;;;;;;4994199;28;20167;-77
2023/04/11 00:05:32;;;;;;;2.00;0.90;;;11.90;99.90;;;;;;4992044;28;20635;-77
2023/04/11 00:07:58;;;;;;;1.65;0.57;;;11.90;99.90;;;;;;4993924;28;20639;-75
2023/04/11 00:10:24;;;;;;;2.03;0.93;;;12.00;99.90;;;;;;5008572;28;20246;-76
2023/04/11 00:12:49;;;;;;;1.50;0.80;;;12.00;99.90;;;;;;4992607;28;20163;-76
2023/04/11 00:15:16;;;;;;;2.03;0.70;;;12.00;99.90;;;;;;4975870;28;20895;-76
2023/04/11 00:17:44;;;;;;;3.67;0.60;;;12.00;99.90;;;;;;4992718;28;20175;-75
2023/04/11 00:20:11;;;;;;;1.90;0.47;;;12.00;99.90;;;;;;4992278;28;20198;-76
2023/04/11 00:22:38;;;;;;;1.30;0.60;;;12.00;99.90;;;;;;5008317;28;20175;-76
2023/04/11 00:25:05;;;;;;;2.30;0.82;;;12.00;99.90;;;;;;4976130;28;20182;-76
2023/04/11 00:27:31;;;;;;;2.95;0.68;;;12.10;99.90;;;;;;4975736;28;20207;-76
2023/04/11 00:29:56;;;;;;;3.17;0.70;;;12.10;99.90;;;;;;5008685;28;20218;-76
2023/04/11 00:32:23;;;;;;;1.60;0.60;;;12.10;99.90;;;;;;4975512;28;20175;-77
2023/04/11 00:34:50;;;;;;;5.03;0.70;;;12.10;99.90;;;;;;4992223;28;20182;-76
2023/04/11 00:37:16;;;;;;;2.22;0.65;;;12.10;99.90;;;;;;4992159;28;20183;-76
2023/04/11 00:39:44;;;;;;;3.00;0.70;;;12.10;99.90;;;;;;4975661;28;20226;-77
2023/04/11 00:42:10;;;;;;;1.92;0.75;;;12.10;99.90;;;;;;5008534;28;20175;-76
2023/04/11 00:44:36;;;;;;;6.80;1.17;;;12.10;99.90;;;;;;4991732;28;20278;-76
2023/04/11 00:47:05;;;;;;;2.13;0.80;;;12.00;99.90;;;;;;4991852;28;20298;-76
2023/04/11 00:49:31;;;;;;;4.47;1.00;;;12.10;99.90;;;;;;4975368;28;20178;-76
2023/04/11 00:51:58;;;;;;;2.95;0.68;;;12.10;99.90;;;;;;4991883;28;20275;-76
2023/04/11 00:54:29;;;;;;;2.75;0.70;;;12.10;99.90;;;;;;4974306;28;20202;-76
2023/04/11 00:57:03;;;;;;;3.78;0.80;;;12.10;99.90;;;;;;4991817;28;20179;-76
2023/04/11 00:59:30;;;;;;;4.65;1.10;;;12.10;99.90;;;;;;4975542;28;20273;-77
2023/04/11 01:01:57;;;;;;;4.57;1.00;;;12.20;99.90;;;;;;4974236;28;20690;-76
2023/04/11 01:04:24;;;;;;;3.60;0.85;;;12.10;99.90;;;;;;4992805;28;20179;-76
2023/04/11 01:06:57;;;;;;;3.58;0.88;;;12.10;99.90;;;;;;4991110;28;20206;-76
2023/04/11 01:09:26;;;;;;;3.95;1.00;;;12.20;99.90;;;;;;4975565;28;20175;-76
2023/04/11 01:11:52;;;;;;;3.72;0.80;;;12.20;99.90;;;;;;4980920;28;20213;-76
2023/04/11 01:14:19;;;;;;;5.85;0.90;;;12.20;99.90;;;;;;4979451;28;20236;-77
2023/04/11 01:16:47;;;;;;;4.15;0.88;;;12.20;99.90;;;;;;4974328;28;20205;-76
2023/04/11 01:19:18;;;;;;;5.82;1.60;;;12.20;99.90;;;;;;4991092;28;20178;-76
2023/04/11 01:21:46;;;;;;;3.72;0.82;;;12.20;99.90;;;;;;5007172;28;20183;-76
2023/04/11 01:24:12;;;;;;;3.67;1.00;;;12.10;99.90;;;;;;4974873;28;20262;-76
2023/04/11 01:26:37;;;;;;;5.80;1.57;;;12.10;99.90;;;;;;4974683;28;20289;-76
2023/04/11 01:29:03;;;;;;;3.27;0.80;;;12.10;99.90;;;;;;4990191;28;20622;-76
2023/04/11 01:31:31;;;;;;;3.13;1.17;;;12.10;99.90;;;;;;4974782;28;20618;-76
2023/04/11 01:33:58;;;;;;;6.63;1.15;;;12.00;99.90;;;;;;4990943;28;20598;-76
2023/04/11 01:36:25;;;;;;;6.75;1.20;;;12.00;99.90;;;;;;4974489;28;20183;-76
2023/04/11 01:38:52;;;;;;;3.92;0.73;;;12.00;99.90;;;;;;4991271;28;20729;-76
2023/04/11 01:41:20;;;;;;;5.05;1.20;;;11.90;99.90;;;;;;4990627;28;20206;-76
2023/04/11 01:43:46;;;;;;;4.30;1.13;;;11.90;99.90;;;;;;4991262;28;20336;-76
2023/04/11 01:46:13;;;;;;;8.70;2.10;;;11.80;99.90;;;;;;4990294;28;20282;-75
2023/04/11 01:48:41;;;;;;;6.45;1.42;;;11.80;99.90;;;;;;4991164;28;20625;-76
2023/04/11 01:51:07;;;;;;;7.32;1.30;;;11.80;99.90;;;;;;4990526;28;20199;-76
2023/04/11 01:53:33;;;;;;;8.87;1.23;;;11.70;99.90;;;;;;4990647;28;20174;-76
2023/04/11 01:55:58;;;;;;;5.90;1.13;;;11.70;99.90;;;;;;4990604;28;20607;-76
2023/04/11 01:58:24;;;;;;;7.00;1.27;;;11.70;99.90;;;;;;5006459;28;20270;-76
2023/04/11 02:00:50;;;;;;;9.17;1.13;;;11.70;99.90;;;;;;5037842;23;20304;-75
2023/04/11 02:03:19;;;;;;;6.55;1.52;;;11.60;99.90;;;;;;5031204;28;20786;-75
2023/04/11 02:05:45;;;;;;;4.35;1.75;;;11.60;99.90;;;;;;5024778;28;20177;-75
2023/04/11 02:08:11;;;;;;;6.70;1.37;;;11.60;99.90;;;;;;4999398;28;20204;-75
2023/04/11 02:10:37;;;;;;;9.50;1.70;;;11.60;99.90;;;;;;5004155;28;20621;-75
2023/04/11 02:13:03;;;;;;;7.18;1.23;;;11.60;99.90;;;;;;4966905;28;20254;-75
2023/04/11 02:15:29;;;;;;;10.83;1.90;;;11.60;99.90;;;;;;4985996;28;20199;-76
2023/04/11 02:17:56;;;;;;;9.00;1.48;;;11.60;99.90;;;;;;4986649;28;20594;-76
2023/04/11 02:20:22;;;;;;;5.50;1.73;;;11.60;99.90;;;;;;5000196;28;20195;-76
2023/04/11 02:22:48;;;;;;;11.23;1.45;;;11.60;99.90;;;;;;5001078;28;20590;-76
2023/04/11 02:25:14;;;;;;;8.15;1.40;;;11.60;99.90;;;;;;4999507;28;20179;-76
2023/04/11 02:27:40;;;;;;;10.27;1.87;;;11.60;99.90;;;;;;4999266;28;20214;-75
2023/04/11 02:30:06;;;;;;;7.90;1.43;;;11.60;99.90;;;;;;4968079;28;20610;-75
2023/04/11 02:32:34;;;;;;;8.85;1.13;;;11.60;99.90;;;;;;4998112;28;20605;-75
2023/04/11 02:35:00;;;;;;;7.07;1.50;;;11.60;99.90;;;;;;4985148;28;20232;-75
2023/04/11 02:37:27;;;;;;;11.30;1.80;;;11.60;99.90;;;;;;4999869;28;20178;-75
2023/04/11 02:39:54;;;;;;;8.83;2.20;;;11.60;99.90;;;;;;4998572;28;20531;-75
2023/04/11 02:42:20;;;;;;;10.23;1.80;;;11.60;99.90;;;;;;4978894;28;20185;-76
2023/04/11 02:44:45;;;;;;;9.30;1.90;;;11.60;99.90;;;;;;4994814;28;20262;-75
2023/04/11 02:47:12;;;;;;;7.30;1.80;;;11.70;99.90;;;;;;4994368;28;20202;-75
2023/04/11 02:49:40;;;;;;;11.17;1.80;;;11.70;99.90;;;;;;4963670;28;20535;-74
2023/04/11 02:52:06;;;;;;;6.00;1.40;;;11.80;99.90;;;;;;4987319;28;20214;-75
2023/04/11 02:54:32;;;;;;;8.03;1.67;;;11.80;99.90;;;;;;4988024;28;20205;-74
2023/04/11 02:57:00;;;;;;;10.13;2.08;;;11.90;99.90;;;;;;5001435;28;20616;-74
2023/04/11 02:59:27;;;;;;;7.55;2.45;;;11.90;99.90;;;;;;5006278;28;20199;-75
2023/04/11 03:01:59;;;;;;;8.23;1.50;;;11.90;99.90;;;;;;5005705;28;20182;-76
2023/04/11 03:04:26;;;;;;;8.52;1.70;;;11.90;99.90;;;;;;4997972;28;20593;-76
2023/04/11 03:07:03;;;;;;;10.55;2.05;;;11.90;99.90;;;;;;4996076;28;20191;-76
2023/04/11 03:09:29;;;;;;;8.93;1.70;;;12.00;99.90;;;;;;4995711;28;20689;-75
2023/04/11 03:11:55;;;;;;;10.50;1.77;;;11.90;99.90;;;;;;4997733;28;21286;-75
2023/04/11 03:14:21;;;;;;;17.38;2.08;;;11.90;99.90;;;;;;4993277;28;20578;-75
2023/04/11 03:16:47;;;;;;;8.33;1.47;;;11.90;99.90;;;;;;4993478;28;20813;-76
2023/04/11 03:19:12;;;;;;;6.83;1.20;;;11.80;99.90;;;;;;4996166;28;20640;-75
2023/04/11 03:21:38;;;;;;;4.87;1.43;;;11.80;99.90;;;;;;4996671;28;20175;-75
2023/04/11 03:24:05;;;;;;;11.87;1.70;;;11.80;99.90;;;;;;4997603;28;20586;-75
2023/04/11 03:26:31;;;;;;;8.65;2.08;;;11.70;99.90;;;;;;4997211;28;20625;-75
2023/04/11 03:29:01;;;;;;;10.57;3.42;;;11.70;99.90;;;;;;4996206;28;20167;-75
2023/04/11 03:31:33;;;;;;;8.80;1.88;;;11.60;99.90;;;;;;4977701;28;20194;-74
2023/04/11 03:33:59;;;;;;;8.90;2.13;;;11.60;99.90;;;;;;4977547;28;20539;-74
2023/04/11 03:36:25;;;;;;;6.97;1.83;;;11.50;99.90;;;;;;4977558;28;20626;-74
2023/04/11 03:38:55;;;;;;;6.97;2.03;;;11.50;99.90;;;;;;4993772;28;20171;-74
2023/04/11 03:41:21;;;;;;;9.97;1.50;;;11.40;99.90;;;;;;4977907;28;20205;-75
2023/04/11 03:43:47;;;;;;;7.50;1.85;;;11.30;99.90;;;;;;4977485;28;20183;-75
2023/04/11 03:46:13;;;;;;;7.75;1.70;;;11.30;99.90;;;;;;4993993;28;20210;-75
2023/04/11 03:48:45;;;;;;;7.68;2.10;;;11.20;99.90;;;;;;4965857;28;20178;-75
2023/04/11 03:51:12;;;;;;;7.63;1.75;;;11.20;99.90;;;;;;4995277;28;20191;-75
2023/04/11 03:53:51;;;;;;;7.82;1.50;;;11.10;99.90;;;;;;4963493;28;20201;-75
2023/04/11 03:56:24;;;;;;;10.05;1.88;;;11.10;99.90;;;;;;4982853;28;20174;-75
2023/04/11 03:58:51;;;;;;;11.35;2.20;;;11.10;99.90;;;;;;4978796;28;20202;-75
2023/04/11 04:01:20;;;;;;;10.18;1.90;;;11.10;99.90;;;;;;4982860;28;20271;-76
2023/04/11 04:03:48;;;;;;;10.38;1.77;;;11.00;99.90;;;;;;4987414;28;20182;-75
2023/04/11 04:06:15;;;;;;;6.60;1.92;;;11.00;99.90;;;;;;4985902;28;20213;-75
2023/04/11 04:08:41;;;;;;;9.85;1.42;;;11.00;99.90;;;;;;4999855;28;20270;-75
2023/04/11 04:11:07;;;;;;;12.23;2.50;;;11.00;99.90;;;;;;5000436;28;20269;-76
2023/04/11 04:13:35;;;;;;;8.20;1.33;;;11.00;99.90;;;;;;5005623;28;20181;-76
2023/04/11 04:16:10;;;;;;;10.90;2.25;;;11.00;99.90;;;;;;4990711;28;20175;-76
2023/04/11 04:18:37;;;;;;;12.32;1.85;;;11.00;99.90;;;;;;5000316;28;20195;-75
2023/04/11 04:21:07;;;;;;;7.10;1.58;;;11.00;99.90;;;;;;5000203;28;20249;-75
2023/04/11 04:23:34;;;;;;;9.38;1.27;;;11.10;99.90;;;;;;5001323;28;20229;-76
2023/04/11 04:26:23;;;;;;;11.20;2.15;;;11.10;99.90;;;;;;4984545;28;20207;-75
2023/04/11 04:29:03;;;;;;;9.60;2.30;;;11.20;99.90;;;;;;4998242;28;20185;-75
2023/04/11 04:31:37;;;;;;;9.43;2.03;;;11.20;99.90;;;;;;4981401;28;20337;-76
2023/04/11 04:34:08;;;;;;;7.60;1.60;;;11.30;99.90;;;;;;4982196;28;20206;-76
2023/04/11 04:36:48;;;;;;;9.02;1.73;;;11.30;99.90;;;;;;4998692;28;20452;-75
2023/04/11 04:39:19;;;;;;;8.20;1.60;;;11.30;99.90;;;;;;4998974;28;20298;-75
2023/04/11 04:41:57;;;;;;;4.70;1.42;;;11.30;99.90;;;;;;4989955;28;20179;-75
2023/04/11 04:44:25;;;;;;;9.45;1.60;;;11.40;99.90;;;;;;5013479;28;20174;-75
2023/04/11 04:46:55;;;;;;;11.93;2.05;;;11.40;99.90;;;;;;5008549;28;20206;-76
2023/04/11 04:49:23;;;;;;;9.63;1.95;;;11.40;99.90;;;;;;5006056;28;20324;-76
2023/04/11 04:51:49;;;;;;;10.00;1.90;;;11.40;99.90;;;;;;5001275;28;20201;-75
2023/04/11 04:54:18;;;;;;;6.97;1.50;;;11.40;99.90;;;;;;4999758;28;20175;-75
2023/04/11 04:56:44;;;;;;;8.13;2.30;;;11.40;99.90;;;;;;4984329;28;20583;-76
2023/04/11 04:59:14;;;;;;;11.60;1.90;;;11.40;99.90;;;;;;4982906;28;20190;-75
2023/04/11 05:01:41;;;;;;;7.18;1.98;;;11.40;99.90;;;;;;5001913;28;20191;-75
2023/04/11 05:04:08;;;;;;;7.03;1.95;;;11.50;99.90;;;;;;5001902;28;20190;-76
2023/04/11 05:06:48;;;;;;;6.60;1.30;;;11.40;99.90;;;;;;5001936;28;20224;-75
2023/04/11 05:09:15;;;;;;;9.43;1.65;;;11.50;99.90;;;;;;4981868;28;20187;-75
2023/04/11 05:11:41;;;;;;;7.45;1.50;;;11.50;99.90;;;;;;4997878;28;20198;-75
2023/04/11 05:14:08;;;;;;;6.93;1.60;;;11.50;99.90;;;;;;4983111;28;20206;-76
2023/04/11 05:16:36;;;;;;;6.65;1.77;;;11.50;99.90;;;;;;4999713;28;20194;-75
2023/04/11 05:19:02;;;;;;;8.65;1.80;;;11.50;99.90;;;;;;4998507;28;20183;-75
2023/04/11 05:21:30;;;;;;;11.48;2.60;;;11.50;99.90;;;;;;4983111;28;20191;-75
2023/04/11 05:23:56;;;;;;;9.00;2.20;;;11.50;99.90;;;;;;4984126;28;20190;-75
2023/04/11 05:26:23;;;;;;;7.80;1.73;;;11.50;99.90;;;;;;4984373;28;20233;-75
2023/04/11 05:28:48;;;;;;;7.43;2.00;;;11.60;99.90;;;;;;5001695;28;20543;-76
2023/04/11 05:31:17;;;;;;;5.85;1.33;;;11.60;99.90;;;;;;4998640;28;20282;-75
2023/04/11 05:33:44;;;;;;;10.18;2.28;;;11.50;99.90;;;;;;4998924;28;20175;-75
2023/04/11 05:36:13;;;;;;;12.38;2.53;;;11.50;99.90;;;;;;4998523;28;20322;-75
2023/04/11 05:38:40;;;;;;;10.75;2.30;;;11.50;99.90;;;;;;4999706;28;20309;-76
2023/04/11 05:41:07;;;;;;;10.30;2.78;;;11.60;99.90;;;;;;4997445;28;20203;-75
2023/04/11 05:43:33;;;;;;;9.13;3.00;;;11.50;99.90;;;;;;5006724;28;20190;-75
2023/04/11 05:46:00;;;;;;;10.60;2.33;;;11.50;99.90;;;;;;5017768;28;20209;-74
2023/04/11 05:48:26;;;;;;;13.68;2.55;;;11.60;99.90;;;;;;5014270;28;20197;-76
2023/04/11 05:50:52;;;;;;;7.90;2.47;;;11.60;99.90;;;;;;5002430;28;20569;-75
2023/04/11 05:53:18;;;;;;;13.40;3.10;;;11.60;99.90;;;;;;5018940;28;20171;-75
2023/04/11 05:55:44;;;;;;;8.60;2.30;;;11.70;99.90;;;;;;5015095;28;20170;-75
2023/04/11 05:58:10;;;;;;;12.13;2.70;;;11.70;99.90;;;;;;5014035;28;20182;-75
2023/04/11 06:00:37;;;;;;;8.63;2.00;;;11.70;99.90;;;;;;5013806;28;20625;-75
2023/04/11 06:03:04;;;;;;;8.43;1.88;;;11.80;99.90;;;;;;5008485;28;20586;-76
2023/04/11 06:05:34;;;;;;;8.65;3.33;;;11.80;99.90;;;;;;4996153;28;20191;-76
2023/04/11 06:08:01;;;;;;;11.90;2.50;;;11.80;99.90;;;;;;5009808;28;20265;-75
2023/04/11 06:10:28;;;;;;;7.38;1.90;;;11.90;99.90;;;;;;5001574;28;20262;-75
2023/04/11 06:12:53;;;;;;;10.13;3.10;;;11.90;99.90;;;;;;4996857;28;20202;-76
2023/04/11 06:15:20;;;;;;;5.97;1.83;;;11.90;99.90;;;;;;4994823;28;20166;-75
2023/04/11 06:17:46;;;;;;;8.85;2.95;;;12.00;99.90;;;;;;4996126;28;20254;-76
2023/04/11 06:20:13;;;;;;;10.27;2.97;;;12.00;99.90;;;;;;4994608;28;20226;-76
2023/04/11 06:22:39;;;;;;;12.35;2.30;;;12.10;99.90;;;;;;4990074;28;20190;-77
2023/04/11 06:25:06;;;;;;;9.37;2.27;;;12.10;99.90;;;;;;4991542;28;20159;-77
2023/04/11 06:27:31;;;;;;;6.47;1.90;;;12.20;99.90;;;;;;4991221;28;20279;-76
2023/04/11 06:29:57;;;;;;;7.35;2.45;;;12.20;99.90;;;;;;4987898;28;20193;-76
2023/04/11 06:32:24;;;;;;;10.50;2.30;;;12.20;99.90;;;;;;4991630;28;20627;-74
2023/04/11 06:34:50;;;;;;;11.20;2.60;;;12.30;99.90;;;;;;4974984;28;20181;-75
2023/04/11 06:37:18;;;;;;;11.27;2.67;;;12.40;99.90;;;;;;4993541;28;20716;-75
2023/04/11 06:39:44;;;;;;;8.25;1.65;;;12.50;99.90;;;;;;4995238;28;20237;-75
2023/04/11 06:42:10;;;;;;;7.30;2.57;;;12.60;99.90;;;;;;4992595;28;20771;-76
2023/04/11 06:44:40;;;;;;;13.02;3.40;;;12.80;99.90;;;;;;4974476;28;20595;-75
2023/04/11 06:47:05;;;;;;;12.37;3.30;;;13.10;99.90;;;;;;4991421;28;20610;-75
2023/04/11 06:49:32;;;;;;;8.50;2.60;;;13.30;99.90;;;;;;4992645;28;20190;-76
2023/04/11 06:51:58;;;;;;;14.90;2.65;;;13.40;99.90;;;;;;4997646;28;20179;-76
2023/04/11 06:54:24;;;;;;;12.50;2.70;;;13.50;99.90;;;;;;4997290;28;20220;-75
2023/04/11 06:56:50;;;;;;;7.60;2.73;;;13.70;99.90;;;;;;4997156;28;20574;-75
2023/04/11 06:59:20;;;;;;;9.73;2.37;;;14.10;99.90;;;;;;4998695;28;20578;-75
2023/04/11 07:01:47;;;;;;;11.07;2.27;;;14.40;99.90;;;;;;4998577;28;20602;-75
2023/04/11 07:04:12;;;;;;;8.20;2.60;;;14.90;99.90;;;;;;4999664;28;20681;-75
2023/04/11 07:06:38;;;;;;;9.17;2.73;;;15.70;99.90;;;;;;4979933;28;20816;-75
2023/04/11 07:09:04;;;;;;;7.07;2.20;;;16.30;99.90;;;;;;5000659;28;20175;-75
2023/04/11 07:11:30;;;;;;;9.30;1.97;;;17.10;99.90;;;;;;5001854;28;20230;-75
2023/04/11 07:13:58;;;;;;;7.87;2.00;;;17.60;99.90;;;;;;5000035;28;20578;-75
2023/04/11 07:16:25;;;;;;;11.70;2.70;;;17.80;99.90;;;;;;4998502;28;20586;-75
2023/04/11 07:18:52;;;;;;;7.83;2.50;;;18.00;99.90;;;;;;4980880;28;20597;-75
2023/04/11 07:21:18;;;;;;;7.77;1.90;;;18.40;99.90;;;;;;4996967;28;20679;-74
2023/04/11 07:23:44;;;;;;;8.20;1.90;;;18.90;99.90;;;;;;4996082;28;20586;-74
2023/04/11 07:26:10;;;;;;;10.43;1.60;;;19.00;99.90;;;;;;4996639;28;20581;-75
2023/04/11 07:28:37;;;;;;;6.97;2.47;;;19.10;99.90;;;;;;4995193;28;20570;-74
2023/04/11 07:31:07;;;;;;;9.20;2.00;;;19.20;99.90;;;;;;4996314;28;20628;-76
2023/04/11 07:33:33;;;;;;;10.50;2.87;;;19.10;99.90;;;;;;4998962;28;20587;-76
2023/04/11 07:35:59;;;;;;;11.97;2.10;;;18.90;99.90;;;;;;4997664;28;20566;-75
2023/04/11 07:38:28;;;;;;;6.20;2.00;;;18.90;99.90;;;;;;4998922;28;20616;-75
2023/04/11 07:40:59;;;;;;;7.77;1.80;;;19.30;99.90;;;;;;4996172;28;20645;-75
2023/04/11 07:43:26;;;;;;;4.60;1.80;;;19.70;99.90;;;;;;4995020;28;20589;-74
2023/04/11 07:45:53;;;;;;;4.47;1.67;;;20.00;99.90;;;;;;4995445;28;20717;-75
2023/04/11 07:48:24;;;;;;;4.40;2.30;;;20.40;99.90;;;;;;4996218;28;20749;-74
2023/04/11 07:50:50;;;;;;;5.27;1.70;;;20.60;99.90;;;;;;4995681;28;20610;-75
2023/04/11 07:53:15;;;;;;;7.00;1.93;;;20.90;99.90;;;;;;4994044;28;20597;-75
2023/04/11 07:55:41;;;;;;;5.97;1.43;;;20.90;99.90;;;;;;4995297;28;21105;-75
2023/04/11 07:58:07;;;;;;;6.27;1.77;;;20.90;99.90;;;;;;4995073;28;20191;-74
2023/04/11 08:00:33;;;;;;;10.10;2.13;;;21.00;99.90;;;;;;5006985;28;20626;-75
2023/04/11 08:03:06;;;;;;;8.17;2.00;;;21.20;99.90;;;;;;5007870;28;20183;-76
2023/04/11 08:05:34;;;;;;;4.40;1.50;;;21.40;99.90;;;;;;5008778;28;20598;-76
2023/04/11 08:08:00;;;;;;;7.40;2.83;;;21.60;99.90;;;;;;5004926;28;20626;-76
2023/04/11 08:10:27;;;;;;;5.10;1.60;;;21.60;98.80;;;;;;5011391;28;20593;-76
2023/04/11 08:12:54;;;;;;;4.90;1.30;;;21.30;97.70;;;;;;5008596;28;20641;-76
2023/04/11 08:15:20;;;;;;;5.17;1.00;;;20.90;96.40;;;;;;5009440;28;20593;-76
2023/04/11 08:17:48;;;;;;;4.07;1.50;;;20.40;96.50;;;;;;5006183;28;20566;-75
2023/04/11 08:20:15;;;;;;;7.00;2.30;;;20.00;95.60;;;;;;5006443;28;20699;-75
2023/04/11 08:22:43;;;;;;;8.83;2.20;;;19.60;96.50;;;;;;5007830;28;21184;-76
2023/04/11 08:25:13;;;;;;;4.93;1.93;;;19.70;98.20;;;;;;5006627;28;20578;-75
2023/04/11 08:27:39;;;;;;;6.23;2.20;;;20.20;99.40;;;;;;4990149;28;20634;-75
2023/04/11 08:30:09;;;;;;;3.40;1.00;;;20.80;99.30;;;;;;4988019;28;20606;-76
2023/04/11 08:32:35;;;;;;;6.80;1.30;;;21.20;98.70;;;;;;5013815;28;20577;-76
2023/04/11 08:35:01;;;;;;;3.87;0.90;;;21.70;99.60;;;;;;5009471;28;20581;-76
2023/04/11 08:37:27;;;;;;;8.77;1.67;;;22.20;99.20;;;;;;5005501;28;20681;-75
2023/04/11 08:39:53;;;;;;;5.43;1.63;;;22.80;98.50;;;;;;5008369;28;20198;-76
2023/04/11 08:42:28;;;;;;;4.67;1.37;;;23.00;96.60;;;;;;5009689;28;20689;-76
2023/04/11 08:44:56;;;;;;;6.03;1.00;;;23.10;92.70;;;;;;5010861;28;20178;-75
2023/04/11 08:47:22;;;;;;;3.97;1.00;;;22.90;92.20;;;;;;5005199;28;20638;-77
2023/04/11 08:49:49;;;;;;;4.07;0.90;;;22.60;88.60;;;;;;5003131;28;20676;-76
2023/04/11 08:52:16;;;;;;;5.43;1.10;;;22.30;87.20;;;;;;5008084;28;20602;-77
2023/04/11 08:54:42;;;;;;;5.20;1.70;;;21.90;87.90;;;;;;4982815;28;20606;-76
2023/04/11 08:57:07;;;;;;;4.27;1.00;;;21.50;87.30;;;;;;5009334;28;20594;-76
2023/04/11 08:59:33;;;;;;;4.27;1.00;;;21.30;88.80;;;;;;5001418;28;20617;-76
2023/04/11 09:02:08;;;;;;;6.27;1.00;;;21.30;90.90;;;;;;5014173;28;20237;-76
2023/04/11 09:04:40;;;;;;;5.97;1.20;;;21.60;92.00;;;;;;5013138;28;20178;-77
2023/04/11 09:07:06;;;;;;;4.47;1.20;;;22.10;92.90;;;;;;5012733;28;21169;-76
2023/04/11 09:09:35;;;;;;;4.63;0.90;;;22.20;91.40;;;;;;5008389;28;20609;-76
2023/04/11 09:12:02;;;;;;;4.60;0.90;;;22.10;90.40;;;;;;4994938;28;20266;-74
2023/04/11 09:14:29;;;;;;;2.40;0.83;;;22.00;89.60;;;;;;5007442;28;20621;-75
2023/04/11 09:17:04;;;;;;;5.27;2.23;;;21.80;88.90;;;;;;5004597;28;20668;-74
2023/04/11 09:19:32;;;;;;;4.50;1.07;;;21.80;86.10;;;;;;5020581;28;20680;-75
2023/04/11 09:22:00;;;;;;;5.93;1.27;;;21.60;86.30;;;;;;5002284;28;20967;-77
2023/04/11 09:24:30;;;;;;;3.80;1.27;;;21.20;83.10;;;;;;5001465;28;20593;-74
2023/04/11 09:27:08;;;;;;;5.47;1.67;;;20.80;82.90;;;;;;5003408;28;20634;-76
2023/04/11 09:29:41;;;;;;;3.80;1.10;;;20.40;82.70;;;;;;5001665;28;20600;-76
2023/04/11 09:32:26;;;;;;;4.50;1.00;;;20.10;84.60;;;;;;4990439;28;20598;-76
2023/04/11 09:35:14;;;;;;;4.80;1.40;;;20.20;86.60;;;;;;5004674;28;20577;-76
2023/04/11 09:38:02;;;;;;;4.97;1.23;;;20.40;87.50;;;;;;4995487;28;20586;-75
2023/04/11 09:40:32;;;;;;;5.53;1.13;;;20.50;87.60;;;;;;4994432;28;20660;-75
2023/04/11 09:43:02;;;;;;;3.70;1.23;;;20.70;88.30;;;;;;4993115;28;20574;-75
2023/04/11 09:45:30;;;;;;;6.87;1.20;;;20.90;88.90;;;;;;5000205;28;20985;-77
2023/04/11 09:47:58;;;;;;;4.67;1.10;;;21.30;90.20;;;;;;5010343;28;20673;-76
2023/04/11 09:50:27;;;;;;;3.80;1.70;;;21.70;88.60;;;;;;5010536;28;20610;-76
2023/04/11 09:52:55;;;;;;;3.20;1.10;;;22.10;86.10;;;;;;5003904;28;20601;-76
2023/04/11 09:55:23;;;;;;;7.30;1.10;;;22.60;88.10;;;;;;5001244;28;20634;-77
2023/04/11 09:57:53;;;;;;;3.73;0.90;;;23.30;88.70;;;;;;4997592;28;20590;-74
2023/04/11 10:00:27;;;;;;;5.50;1.17;;;23.90;88.10;;;;;;4993065;28;21198;-74
2023/04/11 10:02:54;;;;;;;3.40;1.10;;;24.40;82.40;;;;;;4992195;28;20578;-75
2023/04/11 10:05:25;;;;;;;4.70;1.30;;;24.30;80.80;;;;;;4994824;28;20582;-74
2023/04/11 10:08:07;;;;;;;3.80;1.33;;;24.30;76.10;;;;;;4996465;28;20634;-74
2023/04/11 10:10:34;;;;;;;3.00;1.23;;;24.40;76.00;;;;;;5004039;28;20605;-74
2023/04/11 10:13:00;;;;;;;3.27;0.80;;;24.60;72.70;;;;;;5004042;28;21109;-74
2023/04/11 10:15:27;;;;;;;4.33;1.33;;;24.70;74.20;;;;;;5007331;28;20661;-73
2023/04/11 10:18:07;;;;;;;3.07;1.27;;;24.80;70.10;;;;;;5001227;28;20655;-73
2023/04/11 10:20:44;;;;;;;5.80;1.00;;;24.70;67.60;;;;;;5002546;28;20684;-75
2023/04/11 10:23:11;;;;;;;4.03;1.57;;;24.90;68.30;;;;;;4993081;28;21164;-75
2023/04/11 10:25:50;;;;;;;3.37;0.80;;;25.30;72.40;;;;;;5004092;28;20589;-75
2023/04/11 10:28:38;;;;;;;2.70;1.00;;;25.40;64.00;;;;;;5000208;28;20952;-76
2023/04/11 10:31:08;;;;;;;4.93;1.00;;;25.30;65.90;;;;;;5005633;28;20633;-76
2023/04/11 10:33:37;;;;;;;5.90;1.00;;;25.10;63.20;;;;;;5001841;28;20562;-75
2023/04/11 10:36:10;;;;;;;3.77;1.33;;;24.60;61.70;;;;;;4998709;28;20579;-75
2023/04/11 10:38:47;;;;;;;5.73;1.00;;;24.20;60.70;;;;;;4997280;28;20582;-75
2023/04/11 10:41:16;;;;;;;4.57;1.00;;;23.60;58.60;;;;;;4994366;28;20725;-75
2023/04/11 10:43:43;;;;;;;2.97;1.00;;;23.20;61.60;;;;;;4996450;28;20578;-75
2023/04/11 10:46:25;;;;;;;3.67;1.20;;;22.90;60.00;;;;;;4996881;28;20626;-75
2023/04/11 10:49:04;;;;;;;5.33;1.63;;;22.50;58.70;;;;;;5010572;28;20577;-75
2023/04/11 10:51:32;;;;;;;5.20;1.87;;;22.20;61.00;;;;;;4995817;28;20951;-75
2023/04/11 10:53:59;;;;;;;3.30;1.40;;;22.20;60.90;;;;;;4994416;28;20586;-75
2023/04/11 10:56:47;;;;;;;5.40;1.10;;;22.30;61.80;;;;;;4991895;28;20579;-75
2023/04/11 10:59:49;;;;;;;4.03;1.30;;;22.20;60.40;;;;;;4992235;28;20566;-74
2023/04/11 11:02:15;;;;;;;6.60;1.00;;;21.80;58.60;;;;;;4951166;28;20588;-74
2023/04/11 11:04:41;;;;;;;5.10;0.83;;;21.40;58.70;;;;;;4993290;28;20577;-73
2023/04/11 11:07:12;;;;;;;4.43;1.13;;;20.90;59.20;;;;;;4993147;28;20610;-75
2023/04/11 11:09:38;;;;;;;6.73;1.20;;;20.70;59.70;;;;;;5011897;28;20535;-75
2023/04/11 11:12:11;;;;;;;4.27;1.10;;;20.60;61.50;;;;;;5022043;28;20564;-76
2023/04/11 11:14:39;;;;;;;3.73;1.10;;;20.70;62.80;;;;;;5012738;28;20185;-76
2023/04/11 11:17:06;;;;;;;3.30;0.90;;;20.90;65.30;;;;;;5029084;28;20624;-76
2023/04/11 11:19:32;;;;;;;4.07;0.80;;;21.20;65.30;;;;;;5023425;28;20597;-76
2023/04/11 11:22:05;;;;;;;5.17;1.00;;;21.50;63.80;;;;;;5018569;28;20664;-76
2023/04/11 11:24:31;;;;;;;3.13;1.03;;;21.70;59.80;;;;;;5031079;28;20693;-76
2023/04/11 11:26:57;;;;;;;4.43;0.80;;;21.70;60.70;;;;;;5029779;28;20664;-76
2023/04/11 11:29:34;;;;;;;5.47;1.40;;;21.80;61.80;;;;;;5028732;28;20581;-76
2023/04/11 11:32:04;;;;;;;3.80;0.80;;;22.00;59.50;;;;;;5031851;28;20569;-76
2023/04/11 11:34:32;;;;;;;3.40;0.90;;;22.20;61.80;;;;;;5030911;28;20589;-76
2023/04/11 11:37:00;;;;;;;4.80;0.80;;;22.30;62.50;;;;;;5032658;28;20610;-77
2023/04/11 11:39:29;;;;;;;2.43;0.83;;;22.50;62.90;;;;;;5017093;28;20587;-76
2023/04/11 11:41:55;;;;;;;4.33;1.10;;;22.60;62.80;;;;;;5035289;28;20688;-76
2023/04/11 11:44:29;;;;;;;7.73;1.33;;;22.80;63.00;;;;;;5034158;28;20596;-77
2023/04/11 11:47:05;;;;;;;4.17;1.60;;;23.00;61.00;;;;;;5033857;28;20631;-76
2023/04/11 11:49:44;;;;;;;6.80;2.07;;;23.10;60.80;;;;;;5017148;28;20613;-79
2023/04/11 11:52:10;;;;;;;3.23;1.50;;;23.40;61.60;;;;;;5017409;28;20628;-80
2023/04/11 11:54:46;;;;;;;3.73;1.10;;;23.70;61.00;;;;;;5014381;28;20561;-79
2023/04/11 11:57:21;;;;;;;4.80;1.20;;;23.80;58.70;;;;;;5013248;28;20998;-79
2023/04/11 11:59:57;;;;;;;3.90;0.97;;;23.70;58.50;;;;;;4994499;28;20620;-79
2023/04/11 12:02:24;;;;;;;2.67;0.67;;;23.50;56.50;;;;;;4993371;28;20604;-79
2023/04/11 12:04:56;;;;;;;3.67;0.87;;;23.30;57.20;;;;;;4992697;28;20593;-79
2023/04/11 12:07:22;;;;;;;6.87;1.00;;;22.90;56.40;;;;;;4993184;28;20625;-78
2023/04/11 12:09:48;;;;;;;2.67;0.90;;;22.60;56.30;;;;;;4994698;28;20685;-79
2023/04/11 12:12:16;;;;;;;2.57;0.70;;;22.10;55.40;;;;;;4992574;28;20558;-78
2023/04/11 12:14:52;;;;;;;5.03;1.50;;;21.60;55.00;;;;;;4994348;28;20581;-79
2023/04/11 12:17:18;;;;;;;3.37;1.40;;;21.30;55.70;;;;;;4994311;28;20183;-78
2023/04/11 12:19:44;;;;;;;4.03;1.00;;;21.20;57.70;;;;;;4978345;28;20677;-78
2023/04/11 12:22:10;;;;;;;7.07;0.90;;;21.10;58.00;;;;;;4995482;28;20200;-77
2023/04/11 12:24:35;;;;;;;3.97;1.07;;;21.10;57.80;;;;;;4978023;28;20185;-78
2023/04/11 12:27:02;;;;;;;4.97;1.37;;;20.90;56.90;;;;;;4994847;28;20249;-78
2023/04/11 12:29:28;;;;;;;3.37;0.90;;;20.90;57.00;;;;;;4996676;28;20546;-78
2023/04/11 12:31:53;;;;;;;3.97;1.93;;;20.90;57.60;;;;;;4998156;28;20559;-78
2023/04/11 12:34:19;;;;;;;2.50;0.80;;;20.90;58.40;;;;;;4998300;28;20171;-78
2023/04/11 12:36:45;;;;;;;5.77;1.20;;;21.00;58.40;;;;;;4997466;28;20664;-78
2023/04/11 12:39:10;;;;;;;3.30;0.93;;;21.10;58.30;;;;;;4995583;28;20182;-78
2023/04/11 12:41:36;;;;;;;4.73;1.50;;;21.20;58.30;;;;;;4995418;28;20199;-78
2023/04/11 12:44:02;;;;;;;4.33;1.47;;;21.20;57.00;;;;;;4997600;28;20574;-78
2023/04/11 12:46:28;;;;;;;3.90;1.30;;;21.30;58.00;;;;;;4993651;28;20183;-78
2023/04/11 12:48:54;;;;;;;3.67;0.87;;;21.40;57.60;;;;;;4993884;28;20609;-78
2023/04/11 12:51:20;;;;;;;7.10;0.87;;;21.40;57.30;;;;;;4991916;28;20728;-78